East Texas Regional Airport
KGGG : now visible

Airfield :











YOU CAN JOIN US ON...

 
LOGIN :

Register | Disclaimer

   EN    FR    IT 

 









Legend :    VFR   Marginal VFR   IFR   Intensive IFR   Very Intensive IFR
Visi :
Ceiling :
>= 8 km
>= 3000ft
5 to 8 km
1000 to 3000 ft
1500m to 5 km
500 to 1000 ft
800 to 1500m
200 to 500 ft
< 800m
< 200 ft
Symbols :   Thunderstorms  Fog  Heavy snow  Heavy precipitations  Wind > 20 kt






- Airport Elevation : 365 ft
- IATA code : GGG


KGGG - East Texas Regional

CURRENT METAR :
  • 141253Z 00000KT 2SM BR OVC008 04/03 A3025 RMK AO2 RAE48 CIG 005V011 SLP247 P0000 T00390033

EXPIRED METARs :
  • 141153Z AUTO 16003KT 10SM -RA OVC005 03/03 A3022 RMK AO2 RAE12B23 CIG 003V008 SLP238 P0001 60013 70019 T00330028 10044 20028 53004
  • 141117Z AUTO 18004KT 10SM BKN005 BKN014 OVC025 03/03 A3021 RMK AO2 RAE12 P0000 T00330028
  • 141106Z AUTO 19006KT 10SM -RA SCT004 OVC016 03/03 A3021 RMK AO2 P0000 T00330028
  • 141053Z AUTO 18006KT 10SM -RA OVC018 03/03 A3022 RMK AO2 SLP236 P0001 T00330028

TAF KGGG
Valid from the 14 at 12:00 until the 15 at 12:00 UTC


141123Z 1412/1512 00000KT 6SM -RA BR OVC015
TEMPO 1412/1415 2SM -RA BR OVC007
FM141500 36003KT 6SM BR OVC015
FM141900 35004KT P6SM BKN025
FM142300 35003KT P6SM SKC
FM151000 VRB03KT 4SM BR SKC



MET'MAP, your aeronautical weather chart ! - Copyright ORBIFLY December 2007 - Disclaimer

ORBIFLY MET'MAP TEAM :

Programming & Development : Alexandra Zaïnal
Concept & Development : Baudouin d'Aumeries
Co-Development & Prog : Marc-Olivier Méhu
Technical & hardware support : Manuel Goepfert

Contact : metmap@orbifly.com




SOURCES & CREDITS :

   NOAA       Earth
Advisory